sensor_id;sensor_type;location;lat;lon;timestamp;P1;durP1;ratioP1;P2;durP2;ratioP2
13588;SDS011;6865;52.552;13.434;2023-08-20T00:00:29;16.17;;;14.52;;
13588;SDS011;6865;52.552;13.434;2023-08-20T00:03:03;15.95;;;14.50;;
13588;SDS011;6865;52.552;13.434;2023-08-20T00:05:33;16.90;;;13.55;;
13588;SDS011;6865;52.552;13.434;2023-08-20T00:08:00;15.90;;;14.20;;
13588;SDS011;6865;52.552;13.434;2023-08-20T00:10:27;16.55;;;14.13;;
13588;SDS011;6865;52.552;13.434;2023-08-20T00:12:53;15.88;;;14.27;;
13588;SDS011;6865;52.552;13.434;2023-08-20T00:15:20;16.67;;;15.07;;
13588;SDS011;6865;52.552;13.434;2023-08-20T00:17:52;15.68;;;14.20;;
13588;SDS011;6865;52.552;13.434;2023-08-20T00:20:20;15.35;;;14.05;;
13588;SDS011;6865;52.552;13.434;2023-08-20T00:22:48;16.42;;;14.70;;
13588;SDS011;6865;52.552;13.434;2023-08-20T00:25:15;16.30;;;14.70;;
13588;SDS011;6865;52.552;13.434;2023-08-20T00:27:43;15.77;;;14.23;;
13588;SDS011;6865;52.552;13.434;2023-08-20T00:30:10;15.73;;;14.32;;
13588;SDS011;6865;52.552;13.434;2023-08-20T00:32:37;17.38;;;15.70;;
13588;SDS011;6865;52.552;13.434;2023-08-20T00:35:04;17.13;;;15.52;;
13588;SDS011;6865;52.552;13.434;2023-08-20T00:37:33;16.52;;;14.77;;
13588;SDS011;6865;52.552;13.434;2023-08-20T00:40:01;14.93;;;13.43;;
13588;SDS011;6865;52.552;13.434;2023-08-20T00:42:31;15.75;;;14.30;;
13588;SDS011;6865;52.552;13.434;2023-08-20T00:44:57;15.60;;;14.07;;
13588;SDS011;6865;52.552;13.434;2023-08-20T00:47:24;16.05;;;14.50;;
13588;SDS011;6865;52.552;13.434;2023-08-20T00:49:51;16.17;;;13.68;;
13588;SDS011;6865;52.552;13.434;2023-08-20T00:52:19;15.13;;;13.60;;
13588;SDS011;6865;52.552;13.434;2023-08-20T00:54:47;14.65;;;13.35;;
13588;SDS011;6865;52.552;13.434;2023-08-20T00:57:17;14.02;;;12.73;;
13588;SDS011;6865;52.552;13.434;2023-08-20T00:59:47;14.10;;;12.80;;
13588;SDS011;6865;52.552;13.434;2023-08-20T01:02:17;15.65;;;14.18;;
13588;SDS011;6865;52.552;13.434;2023-08-20T01:04:44;14.80;;;13.40;;
13588;SDS011;6865;52.552;13.434;2023-08-20T01:07:36;14.95;;;13.57;;
13588;SDS011;6865;52.552;13.434;2023-08-20T01:10:34;15.00;;;13.60;;
13588;SDS011;6865;52.552;13.434;2023-08-20T01:13:08;14.45;;;12.93;;
13588;SDS011;6865;52.552;13.434;2023-08-20T01:15:36;14.25;;;12.95;;
13588;SDS011;6865;52.552;13.434;2023-08-20T01:18:03;15.05;;;13.13;;
13588;SDS011;6865;52.552;13.434;2023-08-20T01:20:31;15.73;;;14.27;;
13588;SDS011;6865;52.552;13.434;2023-08-20T01:23:10;14.88;;;13.57;;
13588;SDS011;6865;52.552;13.434;2023-08-20T01:26:07;14.90;;;13.30;;
13588;SDS011;6865;52.552;13.434;2023-08-20T01:28:46;16.15;;;13.60;;
13588;SDS011;6865;52.552;13.434;2023-08-20T01:31:13;15.27;;;13.88;;
13588;SDS011;6865;52.552;13.434;2023-08-20T01:33:41;14.90;;;13.52;;
13588;SDS011;6865;52.552;13.434;2023-08-20T01:36:08;15.23;;;13.82;;
13588;SDS011;6865;52.552;13.434;2023-08-20T01:38:37;14.40;;;13.10;;
13588;SDS011;6865;52.552;13.434;2023-08-20T01:41:04;16.02;;;14.27;;
13588;SDS011;6865;52.552;13.434;2023-08-20T01:43:31;14.15;;;12.75;;
13588;SDS011;6865;52.552;13.434;2023-08-20T01:45:58;15.88;;;13.85;;
13588;SDS011;6865;52.552;13.434;2023-08-20T01:48:24;14.20;;;12.77;;
13588;SDS011;6865;52.552;13.434;2023-08-20T01:50:51;14.77;;;13.30;;
13588;SDS011;6865;52.552;13.434;2023-08-20T01:53:18;16.30;;;13.77;;
13588;SDS011;6865;52.552;13.434;2023-08-20T01:55:44;16.15;;;13.05;;
13588;SDS011;6865;52.552;13.434;2023-08-20T01:58:11;16.10;;;14.52;;
13588;SDS011;6865;52.552;13.434;2023-08-20T02:00:37;18.65;;;13.85;;
13588;SDS011;6865;52.552;13.434;2023-08-20T02:03:04;15.75;;;14.25;;
13588;SDS011;6865;52.552;13.434;2023-08-20T02:05:31;16.58;;;14.88;;
13588;SDS011;6865;52.552;13.434;2023-08-20T02:07:58;15.68;;;14.15;;
13588;SDS011;6865;52.552;13.434;2023-08-20T02:10:24;14.65;;;13.25;;
13588;SDS011;6865;52.552;13.434;2023-08-20T02:12:51;16.25;;;14.75;;
13588;SDS011;6865;52.552;13.434;2023-08-20T02:15:17;16.50;;;14.68;;
13588;SDS011;6865;52.552;13.434;2023-08-20T02:17:44;17.73;;;14.02;;
13588;SDS011;6865;52.552;13.434;2023-08-20T02:20:11;16.75;;;14.68;;
13588;SDS011;6865;52.552;13.434;2023-08-20T02:22:37;15.50;;;13.88;;
13588;SDS011;6865;52.552;13.434;2023-08-20T02:25:04;15.32;;;13.93;;
13588;SDS011;6865;52.552;13.434;2023-08-20T02:27:31;15.48;;;14.05;;
13588;SDS011;6865;52.552;13.434;2023-08-20T02:29:59;15.48;;;14.00;;
13588;SDS011;6865;52.552;13.434;2023-08-20T02:32:25;14.15;;;12.65;;
13588;SDS011;6865;52.552;13.434;2023-08-20T02:34:52;14.93;;;13.38;;
13588;SDS011;6865;52.552;13.434;2023-08-20T02:37:19;16.65;;;14.10;;
13588;SDS011;6865;52.552;13.434;2023-08-20T02:39:46;15.95;;;14.40;;
13588;SDS011;6865;52.552;13.434;2023-08-20T02:42:13;15.45;;;13.95;;
13588;SDS011;6865;52.552;13.434;2023-08-20T02:44:39;16.05;;;14.05;;
13588;SDS011;6865;52.552;13.434;2023-08-20T02:47:06;14.90;;;13.40;;
13588;SDS011;6865;52.552;13.434;2023-08-20T02:49:34;15.25;;;13.65;;
13588;SDS011;6865;52.552;13.434;2023-08-20T02:52:00;15.25;;;13.75;;
13588;SDS011;6865;52.552;13.434;2023-08-20T02:54:29;15.77;;;13.80;;
13588;SDS011;6865;52.552;13.434;2023-08-20T02:56:58;16.17;;;14.27;;
13588;SDS011;6865;52.552;13.434;2023-08-20T02:59:25;16.10;;;14.50;;
13588;SDS011;6865;52.552;13.434;2023-08-20T03:01:55;16.52;;;13.40;;
13588;SDS011;6865;52.552;13.434;2023-08-20T03:04:22;15.05;;;13.52;;
13588;SDS011;6865;52.552;13.434;2023-08-20T03:06:48;15.18;;;13.68;;
13588;SDS011;6865;52.552;13.434;2023-08-20T03:09:15;15.43;;;13.82;;
13588;SDS011;6865;52.552;13.434;2023-08-20T03:11:42;16.80;;;14.00;;
13588;SDS011;6865;52.552;13.434;2023-08-20T03:14:09;15.32;;;13.77;;
13588;SDS011;6865;52.552;13.434;2023-08-20T03:16:35;16.02;;;13.30;;
13588;SDS011;6865;52.552;13.434;2023-08-20T03:19:02;15.35;;;13.88;;
13588;SDS011;6865;52.552;13.434;2023-08-20T03:21:30;15.15;;;13.68;;
13588;SDS011;6865;52.552;13.434;2023-08-20T03:23:56;17.77;;;14.15;;
13588;SDS011;6865;52.552;13.434;2023-08-20T03:26:23;15.45;;;13.82;;
13588;SDS011;6865;52.552;13.434;2023-08-20T03:28:49;15.38;;;13.75;;
13588;SDS011;6865;52.552;13.434;2023-08-20T03:31:16;17.45;;;14.55;;
13588;SDS011;6865;52.552;13.434;2023-08-20T03:33:43;18.73;;;14.90;;
13588;SDS011;6865;52.552;13.434;2023-08-20T03:36:09;14.95;;;13.45;;
13588;SDS011;6865;52.552;13.434;2023-08-20T03:38:36;17.77;;;14.00;;
13588;SDS011;6865;52.552;13.434;2023-08-20T03:41:03;16.63;;;14.40;;
13588;SDS011;6865;52.552;13.434;2023-08-20T03:43:29;15.65;;;13.68;;
13588;SDS011;6865;52.552;13.434;2023-08-20T03:45:56;15.95;;;13.90;;
13588;SDS011;6865;52.552;13.434;2023-08-20T03:48:23;16.92;;;14.57;;
13588;SDS011;6865;52.552;13.434;2023-08-20T03:50:49;16.02;;;14.38;;
13588;SDS011;6865;52.552;13.434;2023-08-20T03:53:16;15.02;;;13.52;;
13588;SDS011;6865;52.552;13.434;2023-08-20T03:55:47;16.33;;;13.55;;
13588;SDS011;6865;52.552;13.434;2023-08-20T03:58:17;15.38;;;13.75;;
13588;SDS011;6865;52.552;13.434;2023-08-20T04:00:44;14.80;;;13.40;;
13588;SDS011;6865;52.552;13.434;2023-08-20T04:03:10;14.43;;;12.98;;
13588;SDS011;6865;52.552;13.434;2023-08-20T04:05:37;15.48;;;14.00;;
13588;SDS011;6865;52.552;13.434;2023-08-20T04:08:05;14.90;;;13.15;;
13588;SDS011;6865;52.552;13.434;2023-08-20T04:10:33;15.63;;;14.13;;
13588;SDS011;6865;52.552;13.434;2023-08-20T04:12:59;15.50;;;14.00;;
13588;SDS011;6865;52.552;13.434;2023-08-20T04:15:26;16.75;;;14.18;;
13588;SDS011;6865;52.552;13.434;2023-08-20T04:17:53;16.95;;;14.65;;
13588;SDS011;6865;52.552;13.434;2023-08-20T04:20:20;17.42;;;14.40;;
13588;SDS011;6865;52.552;13.434;2023-08-20T04:22:46;19.33;;;14.98;;
13588;SDS011;6865;52.552;13.434;2023-08-20T04:25:13;16.38;;;14.70;;
13588;SDS011;6865;52.552;13.434;2023-08-20T04:27:40;15.65;;;14.05;;
13588;SDS011;6865;52.552;13.434;2023-08-20T04:30:07;15.75;;;14.25;;
13588;SDS011;6865;52.552;13.434;2023-08-20T04:32:34;17.73;;;14.88;;
13588;SDS011;6865;52.552;13.434;2023-08-20T04:35:01;16.13;;;14.52;;
13588;SDS011;6865;52.552;13.434;2023-08-20T04:37:28;16.50;;;14.55;;
13588;SDS011;6865;52.552;13.434;2023-08-20T04:39:55;17.27;;;15.48;;
13588;SDS011;6865;52.552;13.434;2023-08-20T04:42:21;16.35;;;14.68;;
13588;SDS011;6865;52.552;13.434;2023-08-20T04:44:48;17.20;;;15.50;;
13588;SDS011;6865;52.552;13.434;2023-08-20T04:47:15;18.92;;;15.02;;
13588;SDS011;6865;52.552;13.434;2023-08-20T04:49:41;17.58;;;15.00;;
13588;SDS011;6865;52.552;13.434;2023-08-20T04:52:08;16.10;;;14.50;;
13588;SDS011;6865;52.552;13.434;2023-08-20T04:54:35;19.48;;;15.27;;
13588;SDS011;6865;52.552;13.434;2023-08-20T04:57:02;19.27;;;14.85;;
13588;SDS011;6865;52.552;13.434;2023-08-20T04:59:28;16.80;;;15.07;;
13588;SDS011;6865;52.552;13.434;2023-08-20T05:01:55;17.65;;;15.25;;
13588;SDS011;6865;52.552;13.434;2023-08-20T05:04:22;17.08;;;14.20;;
13588;SDS011;6865;52.552;13.434;2023-08-20T05:06:49;16.48;;;14.73;;
13588;SDS011;6865;52.552;13.434;2023-08-20T05:09:16;16.30;;;14.45;;
13588;SDS011;6865;52.552;13.434;2023-08-20T05:11:43;17.60;;;15.80;;
13588;SDS011;6865;52.552;13.434;2023-08-20T05:14:09;17.20;;;14.83;;
13588;SDS011;6865;52.552;13.434;2023-08-20T05:16:36;17.25;;;15.45;;
13588;SDS011;6865;52.552;13.434;2023-08-20T05:19:03;18.52;;;16.58;;
13588;SDS011;6865;52.552;13.434;2023-08-20T05:21:30;18.05;;;15.32;;
13588;SDS011;6865;52.552;13.434;2023-08-20T05:23:56;17.33;;;15.63;;
13588;SDS011;6865;52.552;13.434;2023-08-20T05:26:23;17.75;;;15.77;;
13588;SDS011;6865;52.552;13.434;2023-08-20T05:28:49;19.52;;;17.48;;
13588;SDS011;6865;52.552;13.434;2023-08-20T05:31:16;18.38;;;15.98;;
13588;SDS011;6865;52.552;13.434;2023-08-20T05:33:43;19.67;;;16.23;;
13588;SDS011;6865;52.552;13.434;2023-08-20T05:36:09;20.23;;;18.23;;
13588;SDS011;6865;52.552;13.434;2023-08-20T05:38:36;16.92;;;15.13;;
13588;SDS011;6865;52.552;13.434;2023-08-20T05:41:03;18.08;;;16.27;;
13588;SDS011;6865;52.552;13.434;2023-08-20T05:43:29;18.25;;;16.40;;
13588;SDS011;6865;52.552;13.434;2023-08-20T05:45:56;18.80;;;15.93;;
13588;SDS011;6865;52.552;13.434;2023-08-20T05:48:23;21.67;;;16.65;;
13588;SDS011;6865;52.552;13.434;2023-08-20T05:50:49;18.45;;;16.63;;
13588;SDS011;6865;52.552;13.434;2023-08-20T05:53:16;18.23;;;15.32;;
13588;SDS011;6865;52.552;13.434;2023-08-20T05:55:43;16.67;;;14.95;;
13588;SDS011;6865;52.552;13.434;2023-08-20T05:58:09;18.58;;;15.48;;
13588;SDS011;6865;52.552;13.434;2023-08-20T06:00:38;17.95;;;16.05;;
13588;SDS011;6865;52.552;13.434;2023-08-20T06:03:04;16.73;;;15.02;;
13588;SDS011;6865;52.552;13.434;2023-08-20T06:05:31;17.10;;;15.40;;
13588;SDS011;6865;52.552;13.434;2023-08-20T06:07:58;20.48;;;16.40;;
13588;SDS011;6865;52.552;13.434;2023-08-20T06:10:24;17.50;;;15.70;;
13588;SDS011;6865;52.552;13.434;2023-08-20T06:12:51;17.88;;;15.90;;
13588;SDS011;6865;52.552;13.434;2023-08-20T06:15:18;16.98;;;15.20;;
13588;SDS011;6865;52.552;13.434;2023-08-20T06:17:45;17.33;;;15.60;;
13588;SDS011;6865;52.552;13.434;2023-08-20T06:20:11;16.25;;;14.63;;
13588;SDS011;6865;52.552;13.434;2023-08-20T06:22:38;18.48;;;15.77;;
13588;SDS011;6865;52.552;13.434;2023-08-20T06:25:05;16.25;;;14.43;;
13588;SDS011;6865;52.552;13.434;2023-08-20T06:27:32;17.25;;;15.40;;
13588;SDS011;6865;52.552;13.434;2023-08-20T06:30:01;16.98;;;14.93;;
13588;SDS011;6865;52.552;13.434;2023-08-20T06:32:27;14.65;;;13.32;;
13588;SDS011;6865;52.552;13.434;2023-08-20T06:34:54;15.30;;;13.63;;
13588;SDS011;6865;52.552;13.434;2023-08-20T06:37:21;16.13;;;14.52;;
13588;SDS011;6865;52.552;13.434;2023-08-20T06:39:47;16.58;;;14.90;;
13588;SDS011;6865;52.552;13.434;2023-08-20T06:42:14;14.50;;;13.00;;
13588;SDS011;6865;52.552;13.434;2023-08-20T06:44:41;15.27;;;13.73;;
13588;SDS011;6865;52.552;13.434;2023-08-20T06:47:07;15.80;;;14.10;;
13588;SDS011;6865;52.552;13.434;2023-08-20T06:49:34;14.27;;;12.98;;
13588;SDS011;6865;52.552;13.434;2023-08-20T06:52:01;15.82;;;14.23;;
13588;SDS011;6865;52.552;13.434;2023-08-20T06:54:27;16.17;;;14.32;;
13588;SDS011;6865;52.552;13.434;2023-08-20T06:56:54;15.35;;;13.60;;
13588;SDS011;6865;52.552;13.434;2023-08-20T06:59:20;14.95;;;13.43;;
13588;SDS011;6865;52.552;13.434;2023-08-20T07:01:47;14.88;;;13.43;;
13588;SDS011;6865;52.552;13.434;2023-08-20T07:04:28;15.13;;;13.52;;
13588;SDS011;6865;52.552;13.434;2023-08-20T07:06:55;15.48;;;13.75;;
13588;SDS011;6865;52.552;13.434;2023-08-20T07:09:21;15.48;;;13.88;;
13588;SDS011;6865;52.552;13.434;2023-08-20T07:11:48;15.75;;;14.13;;
13588;SDS011;6865;52.552;13.434;2023-08-20T07:14:15;16.23;;;13.55;;
13588;SDS011;6865;52.552;13.434;2023-08-20T07:16:42;15.90;;;14.30;;
13588;SDS011;6865;52.552;13.434;2023-08-20T07:19:08;15.77;;;13.60;;
13588;SDS011;6865;52.552;13.434;2023-08-20T07:21:35;16.98;;;14.05;;
13588;SDS011;6865;52.552;13.434;2023-08-20T07:24:02;14.95;;;13.48;;
13588;SDS011;6865;52.552;13.434;2023-08-20T07:26:29;15.45;;;13.30;;
13588;SDS011;6865;52.552;13.434;2023-08-20T07:28:55;17.25;;;14.00;;
13588;SDS011;6865;52.552;13.434;2023-08-20T07:31:23;16.13;;;13.82;;
13588;SDS011;6865;52.552;13.434;2023-08-20T07:33:52;15.65;;;14.15;;
13588;SDS011;6865;52.552;13.434;2023-08-20T07:36:21;15.48;;;13.77;;
13588;SDS011;6865;52.552;13.434;2023-08-20T07:38:48;15.85;;;13.15;;
13588;SDS011;6865;52.552;13.434;2023-08-20T07:41:15;14.93;;;13.45;;
13588;SDS011;6865;52.552;13.434;2023-08-20T07:43:42;15.90;;;13.98;;
13588;SDS011;6865;52.552;13.434;2023-08-20T07:46:09;15.15;;;13.20;;
13588;SDS011;6865;52.552;13.434;2023-08-20T07:48:36;16.00;;;14.40;;
13588;SDS011;6865;52.552;13.434;2023-08-20T07:51:03;17.23;;;13.98;;
13588;SDS011;6865;52.552;13.434;2023-08-20T07:53:30;16.88;;;14.27;;
13588;SDS011;6865;52.552;13.434;2023-08-20T07:55:58;16.65;;;13.77;;
13588;SDS011;6865;52.552;13.434;2023-08-20T07:58:26;15.32;;;13.73;;
13588;SDS011;6865;52.552;13.434;2023-08-20T08:00:56;16.02;;;13.38;;
13588;SDS011;6865;52.552;13.434;2023-08-20T08:03:24;15.93;;;13.50;;
13588;SDS011;6865;52.552;13.434;2023-08-20T08:05:53;14.43;;;12.93;;
13588;SDS011;6865;52.552;13.434;2023-08-20T08:08:20;16.20;;;13.45;;
13588;SDS011;6865;52.552;13.434;2023-08-20T08:10:48;15.07;;;13.48;;
13588;SDS011;6865;52.552;13.434;2023-08-20T08:13:19;14.60;;;13.05;;
13588;SDS011;6865;52.552;13.434;2023-08-20T08:15:47;18.08;;;14.35;;
13588;SDS011;6865;52.552;13.434;2023-08-20T08:18:14;15.75;;;14.23;;
13588;SDS011;6865;52.552;13.434;2023-08-20T08:20:41;16.25;;;14.57;;
13588;SDS011;6865;52.552;13.434;2023-08-20T08:23:08;15.95;;;13.60;;
13588;SDS011;6865;52.552;13.434;2023-08-20T08:25:36;15.80;;;13.93;;
13588;SDS011;6865;52.552;13.434;2023-08-20T08:28:04;16.90;;;14.55;;
13588;SDS011;6865;52.552;13.434;2023-08-20T08:30:31;15.00;;;13.50;;
13588;SDS011;6865;52.552;13.434;2023-08-20T08:32:58;18.27;;;13.95;;
13588;SDS011;6865;52.552;13.434;2023-08-20T08:35:25;15.10;;;13.52;;
13588;SDS011;6865;52.552;13.434;2023-08-20T08:37:52;14.57;;;13.10;;
13588;SDS011;6865;52.552;13.434;2023-08-20T08:40:18;14.45;;;13.05;;
13588;SDS011;6865;52.552;13.434;2023-08-20T08:42:48;16.90;;;12.77;;
13588;SDS011;6865;52.552;13.434;2023-08-20T08:45:19;13.18;;;11.77;;
13588;SDS011;6865;52.552;13.434;2023-08-20T08:47:47;15.40;;;10.82;;
13588;SDS011;6865;52.552;13.434;2023-08-20T08:50:15;12.15;;;10.90;;
13588;SDS011;6865;52.552;13.434;2023-08-20T08:52:42;12.70;;;11.40;;
13588;SDS011;6865;52.552;13.434;2023-08-20T08:55:10;11.35;;;10.27;;
13588;SDS011;6865;52.552;13.434;2023-08-20T08:57:37;11.15;;;10.05;;
13588;SDS011;6865;52.552;13.434;2023-08-20T09:00:04;11.95;;;10.57;;
13588;SDS011;6865;52.552;13.434;2023-08-20T09:02:32;11.40;;;10.30;;
13588;SDS011;6865;52.552;13.434;2023-08-20T09:05:04;10.80;;;9.75;;
13588;SDS011;6865;52.552;13.434;2023-08-20T09:07:31;10.48;;;9.48;;
13588;SDS011;6865;52.552;13.434;2023-08-20T09:09:59;10.57;;;9.23;;
13588;SDS011;6865;52.552;13.434;2023-08-20T09:12:26;12.27;;;9.48;;
13588;SDS011;6865;52.552;13.434;2023-08-20T09:14:53;10.55;;;9.10;;
13588;SDS011;6865;52.552;13.434;2023-08-20T09:17:24;10.77;;;9.70;;
13588;SDS011;6865;52.552;13.434;2023-08-20T09:19:53;11.45;;;8.85;;
13588;SDS011;6865;52.552;13.434;2023-08-20T09:22:23;10.98;;;9.93;;
13588;SDS011;6865;52.552;13.434;2023-08-20T09:24:56;9.52;;;8.52;;
13588;SDS011;6865;52.552;13.434;2023-08-20T09:27:23;8.93;;;8.10;;
13588;SDS011;6865;52.552;13.434;2023-08-20T09:29:52;8.60;;;7.63;;
13588;SDS011;6865;52.552;13.434;2023-08-20T09:32:24;8.80;;;7.90;;
13588;SDS011;6865;52.552;13.434;2023-08-20T09:34:54;9.10;;;7.88;;
13588;SDS011;6865;52.552;13.434;2023-08-20T09:37:22;8.00;;;7.20;;
13588;SDS011;6865;52.552;13.434;2023-08-20T09:39:50;8.20;;;7.20;;
13588;SDS011;6865;52.552;13.434;2023-08-20T09:42:17;7.30;;;6.60;;
13588;SDS011;6865;52.552;13.434;2023-08-20T09:44:45;7.72;;;6.72;;
13588;SDS011;6865;52.552;13.434;2023-08-20T09:47:16;7.53;;;6.68;;
13588;SDS011;6865;52.552;13.434;2023-08-20T09:49:45;7.30;;;6.43;;
13588;SDS011;6865;52.552;13.434;2023-08-20T09:52:17;7.97;;;6.53;;
13588;SDS011;6865;52.552;13.434;2023-08-20T09:55:11;7.22;;;6.30;;
13588;SDS011;6865;52.552;13.434;2023-08-20T09:57:44;7.88;;;7.07;;
13588;SDS011;6865;52.552;13.434;2023-08-20T10:00:13;8.18;;;7.30;;
13588;SDS011;6865;52.552;13.434;2023-08-20T10:02:41;7.80;;;7.00;;
13588;SDS011;6865;52.552;13.434;2023-08-20T10:05:09;6.82;;;6.22;;
13588;SDS011;6865;52.552;13.434;2023-08-20T10:07:37;7.13;;;6.43;;
13588;SDS011;6865;52.552;13.434;2023-08-20T10:10:05;8.05;;;7.25;;
13588;SDS011;6865;52.552;13.434;2023-08-20T10:12:33;8.85;;;6.22;;
13588;SDS011;6865;52.552;13.434;2023-08-20T10:15:01;5.93;;;5.38;;
13588;SDS011;6865;52.552;13.434;2023-08-20T10:17:29;6.20;;;5.60;;
13588;SDS011;6865;52.552;13.434;2023-08-20T10:20:00;6.57;;;5.13;;
13588;SDS011;6865;52.552;13.434;2023-08-20T10:22:33;7.03;;;5.72;;
13588;SDS011;6865;52.552;13.434;2023-08-20T10:25:07;4.65;;;4.25;;
13588;SDS011;6865;52.552;13.434;2023-08-20T10:27:36;4.85;;;4.35;;
13588;SDS011;6865;52.552;13.434;2023-08-20T10:30:08;4.82;;;4.18;;
13588;SDS011;6865;52.552;13.434;2023-08-20T10:32:45;4.85;;;4.15;;
13588;SDS011;6865;52.552;13.434;2023-08-20T10:35:17;4.18;;;3.80;;
13588;SDS011;6865;52.552;13.434;2023-08-20T10:38:04;6.00;;;3.92;;
13588;SDS011;6865;52.552;13.434;2023-08-20T10:40:49;5.00;;;3.85;;
13588;SDS011;6865;52.552;13.434;2023-08-20T10:43:35;4.80;;;4.25;;
13588;SDS011;6865;52.552;13.434;2023-08-20T10:46:07;4.43;;;3.67;;
13588;SDS011;6865;52.552;13.434;2023-08-20T10:48:39;6.22;;;3.80;;
13588;SDS011;6865;52.552;13.434;2023-08-20T10:51:07;4.20;;;3.72;;
13588;SDS011;6865;52.552;13.434;2023-08-20T10:53:36;5.43;;;3.42;;
13588;SDS011;6865;52.552;13.434;2023-08-20T10:56:12;3.85;;;3.20;;
13588;SDS011;6865;52.552;13.434;2023-08-20T10:58:42;3.00;;;2.80;;
13588;SDS011;6865;52.552;13.434;2023-08-20T11:01:13;3.85;;;3.10;;
13588;SDS011;6865;52.552;13.434;2023-08-20T11:03:42;3.60;;;3.05;;
13588;SDS011;6865;52.552;13.434;2023-08-20T11:06:10;3.78;;;3.03;;
13588;SDS011;6865;52.552;13.434;2023-08-20T11:08:38;4.38;;;3.00;;
13588;SDS011;6865;52.552;13.434;2023-08-20T11:11:06;4.72;;;2.80;;
13588;SDS011;6865;52.552;13.434;2023-08-20T11:13:33;3.00;;;2.70;;
13588;SDS011;6865;52.552;13.434;2023-08-20T11:16:04;3.13;;;2.83;;
13588;SDS011;6865;52.552;13.434;2023-08-20T11:18:32;3.75;;;2.90;;
13588;SDS011;6865;52.552;13.434;2023-08-20T11:21:00;3.25;;;2.95;;
13588;SDS011;6865;52.552;13.434;2023-08-20T11:23:27;2.95;;;2.65;;
13588;SDS011;6865;52.552;13.434;2023-08-20T11:25:57;5.35;;;2.67;;
13588;SDS011;6865;52.552;13.434;2023-08-20T11:28:25;4.53;;;2.65;;
13588;SDS011;6865;52.552;13.434;2023-08-20T11:30:55;2.90;;;2.60;;
13588;SDS011;6865;52.552;13.434;2023-08-20T11:33:22;3.67;;;2.88;;
13588;SDS011;6865;52.552;13.434;2023-08-20T11:35:50;4.82;;;2.55;;
13588;SDS011;6865;52.552;13.434;2023-08-20T11:38:19;3.17;;;2.72;;
13588;SDS011;6865;52.552;13.434;2023-08-20T11:40:47;3.38;;;2.88;;
13588;SDS011;6865;52.552;13.434;2023-08-20T11:43:13;3.45;;;2.88;;
13588;SDS011;6865;52.552;13.434;2023-08-20T11:45:47;3.40;;;2.50;;
13588;SDS011;6865;52.552;13.434;2023-08-20T11:48:15;3.53;;;2.70;;
13588;SDS011;6865;52.552;13.434;2023-08-20T11:50:43;4.03;;;2.80;;
13588;SDS011;6865;52.552;13.434;2023-08-20T11:53:10;3.75;;;2.63;;
13588;SDS011;6865;52.552;13.434;2023-08-20T11:55:37;3.25;;;2.50;;
13588;SDS011;6865;52.552;13.434;2023-08-20T11:58:09;2.70;;;2.45;;
13588;SDS011;6865;52.552;13.434;2023-08-20T12:00:37;3.67;;;2.70;;
13588;SDS011;6865;52.552;13.434;2023-08-20T12:03:04;2.90;;;2.60;;
13588;SDS011;6865;52.552;13.434;2023-08-20T12:05:31;3.17;;;2.53;;
13588;SDS011;6865;52.552;13.434;2023-08-20T12:07:59;3.05;;;2.58;;
13588;SDS011;6865;52.552;13.434;2023-08-20T12:10:27;4.80;;;2.65;;
13588;SDS011;6865;52.552;13.434;2023-08-20T12:12:55;3.75;;;2.72;;
13588;SDS011;6865;52.552;13.434;2023-08-20T12:15:24;3.08;;;2.70;;
13588;SDS011;6865;52.552;13.434;2023-08-20T12:17:58;3.22;;;2.38;;
13588;SDS011;6865;52.552;13.434;2023-08-20T12:20:29;5.32;;;2.47;;
13588;SDS011;6865;52.552;13.434;2023-08-20T12:22:58;2.65;;;2.40;;
13588;SDS011;6865;52.552;13.434;2023-08-20T12:25:29;2.97;;;2.28;;
13588;SDS011;6865;52.552;13.434;2023-08-20T12:27:56;3.40;;;2.50;;
13588;SDS011;6865;52.552;13.434;2023-08-20T12:30:23;2.20;;;2.00;;
13588;SDS011;6865;52.552;13.434;2023-08-20T12:32:50;3.70;;;2.72;;
13588;SDS011;6865;52.552;13.434;2023-08-20T12:35:16;3.00;;;2.45;;
13588;SDS011;6865;52.552;13.434;2023-08-20T12:37:43;4.03;;;2.60;;
13588;SDS011;6865;52.552;13.434;2023-08-20T12:40:10;3.47;;;2.42;;
13588;SDS011;6865;52.552;13.434;2023-08-20T12:42:38;3.30;;;2.60;;
13588;SDS011;6865;52.552;13.434;2023-08-20T12:45:08;2.35;;;2.15;;
13588;SDS011;6865;52.552;13.434;2023-08-20T12:47:36;3.60;;;2.50;;
13588;SDS011;6865;52.552;13.434;2023-08-20T12:50:03;3.15;;;2.40;;
13588;SDS011;6865;52.552;13.434;2023-08-20T12:52:31;3.03;;;2.33;;
13588;SDS011;6865;52.552;13.434;2023-08-20T12:54:58;2.20;;;2.00;;
13588;SDS011;6865;52.552;13.434;2023-08-20T12:57:25;3.05;;;2.38;;
13588;SDS011;6865;52.552;13.434;2023-08-20T12:59:51;2.53;;;2.15;;
13588;SDS011;6865;52.552;13.434;2023-08-20T13:02:19;3.20;;;2.50;;
13588;SDS011;6865;52.552;13.434;2023-08-20T13:04:47;2.33;;;2.13;;
13588;SDS011;6865;52.552;13.434;2023-08-20T13:07:14;2.88;;;2.15;;
13588;SDS011;6865;52.552;13.434;2023-08-20T13:09:42;2.90;;;2.20;;
13588;SDS011;6865;52.552;13.434;2023-08-20T13:12:10;2.40;;;2.17;;
13588;SDS011;6865;52.552;13.434;2023-08-20T13:14:39;2.67;;;2.00;;
13588;SDS011;6865;52.552;13.434;2023-08-20T13:17:07;2.22;;;2.00;;
13588;SDS011;6865;52.552;13.434;2023-08-20T13:19:34;2.10;;;1.90;;
13588;SDS011;6865;52.552;13.434;2023-08-20T13:22:01;2.25;;;1.90;;
13588;SDS011;6865;52.552;13.434;2023-08-20T13:24:27;3.90;;;2.00;;
13588;SDS011;6865;52.552;13.434;2023-08-20T13:26:54;3.08;;;2.03;;
13588;SDS011;6865;52.552;13.434;2023-08-20T13:29:21;2.65;;;2.03;;
13588;SDS011;6865;52.552;13.434;2023-08-20T13:31:47;3.58;;;2.03;;
13588;SDS011;6865;52.552;13.434;2023-08-20T13:34:14;3.72;;;2.00;;
13588;SDS011;6865;52.552;13.434;2023-08-20T13:36:41;2.90;;;1.98;;
13588;SDS011;6865;52.552;13.434;2023-08-20T13:39:08;2.78;;;1.73;;
13588;SDS011;6865;52.552;13.434;2023-08-20T13:41:34;2.45;;;1.80;;
13588;SDS011;6865;52.552;13.434;2023-08-20T13:44:01;2.90;;;1.90;;
13588;SDS011;6865;52.552;13.434;2023-08-20T13:46:28;2.42;;;1.52;;
13588;SDS011;6865;52.552;13.434;2023-08-20T13:48:55;2.88;;;1.70;;
13588;SDS011;6865;52.552;13.434;2023-08-20T13:51:22;3.80;;;1.67;;
13588;SDS011;6865;52.552;13.434;2023-08-20T13:53:48;4.10;;;1.70;;
13588;SDS011;6865;52.552;13.434;2023-08-20T13:56:15;2.35;;;1.70;;
13588;SDS011;6865;52.552;13.434;2023-08-20T13:58:42;3.85;;;2.00;;
13588;SDS011;6865;52.552;13.434;2023-08-20T14:01:08;3.72;;;1.67;;
13588;SDS011;6865;52.552;13.434;2023-08-20T14:03:35;2.95;;;1.92;;
13588;SDS011;6865;52.552;13.434;2023-08-20T14:06:02;3.05;;;1.80;;
13588;SDS011;6865;52.552;13.434;2023-08-20T14:08:29;1.55;;;1.45;;
13588;SDS011;6865;52.552;13.434;2023-08-20T14:10:56;3.15;;;1.83;;
13588;SDS011;6865;52.552;13.434;2023-08-20T14:13:23;2.35;;;1.60;;
13588;SDS011;6865;52.552;13.434;2023-08-20T14:15:50;4.05;;;1.70;;
13588;SDS011;6865;52.552;13.434;2023-08-20T14:18:17;2.63;;;1.70;;
13588;SDS011;6865;52.552;13.434;2023-08-20T14:20:43;3.28;;;1.60;;
13588;SDS011;6865;52.552;13.434;2023-08-20T14:23:10;1.40;;;1.20;;
13588;SDS011;6865;52.552;13.434;2023-08-20T14:25:37;2.85;;;1.45;;
13588;SDS011;6865;52.552;13.434;2023-08-20T14:28:07;1.88;;;1.35;;
13588;SDS011;6865;52.552;13.434;2023-08-20T14:30:37;1.85;;;1.50;;
13588;SDS011;6865;52.552;13.434;2023-08-20T14:33:05;1.88;;;1.50;;
13588;SDS011;6865;52.552;13.434;2023-08-20T14:35:32;2.28;;;1.52;;